Saint Stephens, Wyoming
Current Conditions -  °F | °C
As of 6:53 PM on Saturday 25 Oct 2014 (Local Time) from KRIW Reporting Station
Clear Clear  
Wind Chill: 66°   Ceiling: Unl
Heat Index: 66°   Visibility: 10mi
Dew Point: 19°   Wind: 9mph
Humidity: 17%   Direction: 180°S
Pressure: 29.91"   Gusts: NA
Location:  42.98°N, 108.42°W
Report Text: KRIW 260053Z AUTO 18008KT 10SM CLR 19/M07 A2991 RMK AO2 SLP088 T01891072
Loading
Personal Weather Stations






























Interactive Weather Map
Tropical Storm Tracking
New forecast layout! Learn more

10-Day Weather Forecast

Advertisements
Track Severe Weather on mobile